Time;durP1;ratioP1;P1;durP2;ratioP2;P2;SDS_P1;SDS_P2;PMS_P1;PMS_P2;Temp;Humidity;BMP_temperature;BMP_pressure;BME280_temperature;BME280_humidity;BME280_pressure;Samples;Min_cycle;Max_cycle;Signal;HPM_P1;HPM_P2
2022/11/03 00:00:28;;;;;;;8.40;4.30;;;;;;;17.48;46.24;99721.28;5101975;28;20198;-64
2022/11/03 00:02:55;;;;;;;8.03;4.03;;;;;;;17.58;45.80;99724.25;5112221;28;20194;-66
2022/11/03 00:08:07;;;;;;;11.00;4.37;;;;;;;17.78;45.34;99713.53;5112397;28;20194;-64
2022/11/03 00:10:34;;;;;;;11.60;4.37;;;;;;;17.86;44.99;99726.22;5111954;28;20220;-64
2022/11/03 00:13:01;;;;;;;13.60;4.87;;;;;;;17.90;45.00;99722.53;5112388;27;20228;-64
2022/11/03 00:15:29;;;;;;;12.90;4.53;;;;;;;17.95;44.82;99720.47;5112154;28;20281;-64
2022/11/03 00:17:56;;;;;;;9.98;4.30;;;;;;;18.05;44.37;99717.28;5111954;28;20199;-64
2022/11/03 00:20:23;;;;;;;9.65;4.68;;;;;;;18.13;43.97;99720.31;5112067;28;20621;-64
2022/11/03 00:22:50;;;;;;;11.65;4.68;;;;;;;18.14;44.03;99719.38;5111943;28;20282;-64
2022/11/03 00:25:17;;;;;;;8.10;4.43;;;;;;;18.19;44.04;99726.13;5111800;27;20295;-63
2022/11/03 00:27:44;;;;;;;9.32;3.88;;;;;;;18.26;43.43;99724.88;5111734;27;20195;-64
2022/11/03 00:30:11;;;;;;;14.05;4.72;;;;;;;18.29;43.27;99719.41;5112110;28;20686;-64
2022/11/03 00:32:40;;;;;;;8.90;3.80;;;;;;;18.30;43.29;99727.22;5111701;27;20736;-63
2022/11/03 00:35:07;;;;;;;11.48;4.40;;;;;;;18.34;43.05;99714.75;5111731;28;20285;-63
2022/11/03 00:37:34;;;;;;;5.95;4.30;;;;;;;18.48;42.79;99722.69;5111365;28;20201;-63
2022/11/03 00:40:01;;;;;;;8.40;4.07;;;;;;;18.47;42.99;99723.63;5111930;27;20216;-63
2022/11/03 00:42:28;;;;;;;11.10;4.43;;;;;;;18.48;43.02;99720.06;5112000;27;20269;-62
2022/11/03 00:44:55;;;;;;;22.05;4.72;;;;;;;18.49;42.84;99716.50;5111549;28;20585;-63
2022/11/03 00:47:22;;;;;;;14.82;4.10;;;;;;;18.50;42.86;99724.31;5111352;28;20203;-62
2022/11/03 00:49:50;;;;;;;12.43;4.50;;;;;;;18.49;42.89;99725.25;5111280;28;20648;-63
2022/11/03 00:52:17;;;;;;;7.88;3.78;;;;;;;18.54;42.57;99722.31;5111143;28;20218;-63
2022/11/03 00:54:44;;;;;;;10.55;4.13;;;;;;;18.48;42.27;99715.66;5111329;28;20198;-63
2022/11/03 00:57:11;;;;;;;10.68;4.40;;;;;;;18.50;42.41;99713.78;5111247;28;20665;-62
2022/11/03 00:59:38;;;;;;;10.35;4.45;;;;;;;18.52;42.43;99713.69;5111166;28;20699;-63
2022/11/03 01:02:05;;;;;;;9.55;4.22;;;;;;;18.54;42.31;99722.31;5111172;28;20195;-63
2022/11/03 01:07:20;;;;;;;14.55;4.03;;;;;;;18.48;42.19;99713.03;5111122;28;20687;-62
2022/11/03 01:09:47;;;;;;;5.20;3.67;;;;;;;18.47;42.50;99713.13;5111249;28;20282;-61
2022/11/03 01:12:15;;;;;;;6.43;3.63;;;;;;;18.53;42.03;99707.50;5110936;28;20222;-64
2022/11/03 01:14:44;;;;;;;8.75;4.35;;;;;;;18.31;42.34;99686.88;5110937;28;20289;-64
2022/11/03 01:17:14;;;;;;;6.32;3.85;;;;;;;18.44;42.41;99713.28;5110521;28;20187;-64
2022/11/03 01:19:41;;;;;;;10.70;4.30;;;;;;;18.45;42.34;99709.72;5110793;28;20194;-64
2022/11/03 01:22:08;;;;;;;6.68;4.22;;;;;;;18.48;42.25;99712.19;5110847;28;20585;-66
2022/11/03 01:24:37;;;;;;;7.40;3.83;;;;;;;18.43;42.38;99707.19;5110759;28;20272;-65
2022/11/03 01:27:04;;;;;;;8.05;4.03;;;;;;;18.39;42.86;99710.94;5110964;28;20199;-65
2022/11/03 01:29:31;;;;;;;9.00;4.38;;;;;;;18.36;42.50;99707.63;5110494;28;20286;-66
2022/11/03 01:31:58;;;;;;;11.63;4.38;;;;;;;18.32;42.40;99699.06;5110280;28;20229;-66
2022/11/03 01:34:25;;;;;;;7.82;4.28;;;;;;;18.39;42.30;99712.72;5110441;28;20281;-65
2022/11/03 01:36:52;;;;;;;5.95;3.63;;;;;;;18.35;42.61;99705.94;5110475;27;20194;-64
2022/11/03 01:39:21;;;;;;;12.25;4.10;;;;;;;18.37;42.52;99718.06;5110450;28;20196;-65
2022/11/03 01:41:51;;;;;;;9.90;3.75;;;;;;;18.39;42.70;99710.09;5110430;28;20213;-65
2022/11/03 01:44:29;;;;;;;7.68;3.85;;;;;;;18.35;42.51;99712.03;5110405;28;20726;-63
2022/11/03 01:47:03;;;;;;;9.30;3.90;;;;;;;18.37;42.45;99714.59;5110226;28;20190;-63
2022/11/03 01:49:35;;;;;;;8.80;4.30;;;;;;;18.29;42.35;99701.00;5110229;28;20289;-62
2022/11/03 01:52:06;;;;;;;8.18;3.90;;;;;;;18.39;42.35;99717.97;5110325;28;21001;-62
2022/11/03 01:54:36;;;;;;;10.77;3.67;;;;;;;18.20;42.38;99678.75;5110099;28;20191;-61
2022/11/03 01:57:10;;;;;;;12.77;4.05;;;;;;;18.40;42.49;99723.13;5109790;28;20230;-61
2022/11/03 01:59:37;;;;;;;6.13;3.47;;;;;;;18.39;42.38;99720.59;5110216;28;20280;-64
2022/11/03 02:02:05;;;;;;;6.55;3.65;;;;;;;18.36;42.45;99723.41;5109648;28;20670;-61
2022/11/03 02:04:34;;;;;;;7.40;3.33;;;;;;;18.44;42.14;99722.00;5109991;28;20283;-62
2022/11/03 02:07:11;;;;;;;8.02;3.50;;;;;;;18.39;42.17;99720.59;5110157;27;20194;-63
2022/11/03 02:09:38;;;;;;;9.60;4.00;;;;;;;18.37;42.24;99725.94;5110272;28;20584;-63
2022/11/03 02:12:08;;;;;;;8.75;3.30;;;;;;;18.41;42.00;99722.19;5109890;28;20236;-63
2022/11/03 02:14:40;;;;;;;7.05;3.50;;;;;;;18.48;41.74;99741.94;5109926;28;20198;-65
2022/11/03 02:17:11;;;;;;;7.50;3.40;;;;;;;18.50;41.79;99731.34;5110054;28;20286;-65
2022/11/03 02:19:42;;;;;;;8.55;3.45;;;;;;;18.45;42.27;99726.34;5109768;28;20194;-65
2022/11/03 02:22:28;;;;;;;11.80;3.60;;;;;;;18.38;41.94;99721.53;5110037;28;20194;-64
2022/11/03 02:25:02;;;;;;;9.73;3.70;;;;;;;18.42;41.93;99717.78;5109998;28;20704;-64
2022/11/03 02:27:31;;;;;;;13.82;3.60;;;;;;;18.40;41.47;99714.38;5109654;28;20201;-61
2022/11/03 02:29:58;;;;;;;8.80;3.58;;;;;;;18.48;41.73;99731.44;5109780;28;20319;-63
2022/11/03 02:32:30;;;;;;;11.88;3.60;;;;;;;18.49;41.49;99724.41;5109450;28;20225;-64
2022/11/03 02:35:03;;;;;;;12.00;3.97;;;;;;;18.40;41.46;99723.13;5110053;28;20590;-65
2022/11/03 02:37:35;;;;;;;9.00;3.70;;;;;;;18.46;41.43;99733.28;5109668;28;20256;-62
2022/11/03 02:40:06;;;;;;;9.90;3.15;;;;;;;18.51;41.51;99733.84;5109658;28;20190;-62
2022/11/03 02:42:37;;;;;;;9.70;4.15;;;;;;;18.52;41.50;99732.06;5109471;28;20201;-62
2022/11/03 02:45:08;;;;;;;8.05;3.67;;;;;;;18.48;41.55;99735.84;5109567;28;20198;-62
2022/11/03 02:47:37;;;;;;;4.45;3.22;;;;;;;18.52;41.42;99739.97;5109464;28;20211;-62
2022/11/03 02:50:09;;;;;;;8.02;4.53;;;;;;;18.47;41.59;99735.00;5109500;28;20201;-62
2022/11/03 02:52:41;;;;;;;11.45;4.53;;;;;;;18.44;41.58;99739.56;5109475;28;20286;-62
2022/11/03 02:55:16;;;;;;;6.90;4.38;;;;;;;18.38;41.68;99718.91;5109516;28;20205;-61
2022/11/03 02:57:50;;;;;;;14.52;3.88;;;;;;;18.39;41.68;99724.09;5109556;28;21076;-62
2022/11/03 03:00:17;;;;;;;7.60;3.58;;;;;;;18.44;41.66;99731.69;5109577;28;20191;-61
2022/11/03 03:02:54;;;;;;;10.32;4.05;;;;;;;18.43;41.49;99724.72;5109484;28;20187;-62
2022/11/03 03:05:25;;;;;;;8.00;4.35;;;;;;;18.42;41.46;99730.91;5109523;28;20286;-62
2022/11/03 03:07:57;;;;;;;7.47;4.00;;;;;;;18.46;41.43;99727.19;5109612;28;20585;-61
2022/11/03 03:10:26;;;;;;;5.07;3.53;;;;;;;18.34;41.66;99715.59;5109514;28;20724;-62
2022/11/03 03:12:57;;;;;;;8.05;3.90;;;;;;;18.34;41.41;99715.59;5111977;28;20218;-62
2022/11/03 03:15:34;;;;;;;7.20;3.90;;;;;;;18.43;41.82;99727.34;5113115;27;20203;-67
2022/11/03 03:18:10;;;;;;;8.88;3.72;;;;;;;18.44;41.56;99740.41;5112892;28;20193;-62
2022/11/03 03:20:41;;;;;;;9.07;4.18;;;;;;;18.40;41.50;99738.88;5113013;28;20289;-61
2022/11/03 03:23:16;;;;;;;7.10;4.47;;;;;;;18.44;41.34;99745.66;5113286;28;20681;-65
2022/11/03 03:25:49;;;;;;;10.25;4.00;;;;;;;18.44;41.18;99747.47;5113648;28;20202;-68
2022/11/03 03:28:22;;;;;;;7.15;4.03;;;;;;;18.45;41.34;99747.38;5113377;28;20674;-68
2022/11/03 03:30:53;;;;;;;11.43;4.32;;;;;;;18.49;41.04;99748.06;5112890;28;20190;-65
2022/11/03 03:33:21;;;;;;;7.70;3.70;;;;;;;18.51;41.25;99751.41;5112817;28;20226;-65
2022/11/03 03:35:50;;;;;;;10.60;3.87;;;;;;;18.49;41.40;99748.06;5112966;28;20289;-64
2022/11/03 03:38:23;;;;;;;5.28;4.03;;;;;;;18.48;41.45;99746.34;5113082;28;20571;-65
2022/11/03 03:40:53;;;;;;;7.15;3.40;;;;;;;18.47;41.27;99740.25;5112683;28;20615;-65
2022/11/03 03:43:24;;;;;;;11.05;4.05;;;;;;;18.43;41.33;99740.50;5112535;28;20205;-64
2022/11/03 03:45:55;;;;;;;9.18;4.05;;;;;;;18.29;41.80;99719.41;5112502;28;20205;-64
2022/11/03 03:48:22;;;;;;;12.10;3.92;;;;;;;18.43;41.78;99743.97;5106005;28;20194;-65
2022/11/03 03:50:50;;;;;;;6.65;3.85;;;;;;;18.37;41.77;99743.50;5108555;28;20206;-64
2022/11/03 03:53:19;;;;;;;5.10;3.97;;;;;;;18.33;41.89;99732.31;5112690;28;20222;-65
2022/11/03 03:55:49;;;;;;;4.13;3.50;;;;;;;18.37;41.78;99741.72;5110763;28;20258;-64
2022/11/03 03:58:16;;;;;;;5.97;4.15;;;;;;;18.41;41.76;99739.72;5112562;28;20650;-61
2022/11/03 04:00:44;;;;;;;8.68;3.80;;;;;;;18.36;41.92;99736.53;5103943;28;20272;-62
2022/11/03 04:03:16;;;;;;;12.07;4.15;;;;;;;18.47;56.84;99728.88;5091605;28;20598;-61
2022/11/03 04:05:44;;;;;;;7.65;3.50;;;;;;;18.52;49.93;99739.97;5091522;28;20603;-62
2022/11/03 04:08:11;;;;;;;6.15;3.50;;;;;;;18.54;42.61;99740.72;5091415;28;20714;-62
2022/11/03 04:10:38;;;;;;;11.13;3.58;;;;;;;18.60;43.46;99743.06;5091181;28;20219;-64
2022/11/03 04:24:04;;;;;;;10.02;4.05;;;;;;;18.39;41.83;99753.00;5132206;27;20246;-65
2022/11/03 04:26:31;;;;;;;10.52;3.90;;;;;;;18.34;41.90;99749.75;5132289;27;20194;-64
2022/11/03 04:28:59;;;;;;;8.45;4.03;;;;;;;18.34;42.08;99748.91;5132267;27;20194;-61
2022/11/03 04:31:29;;;;;;;8.75;4.10;;;;;;;18.20;41.75;99730.44;5132189;27;20280;-61
2022/11/03 04:33:56;;;;;;;6.70;4.10;;;;;;;18.31;42.51;99754.34;5130580;27;20230;-60
2022/11/03 04:36:25;;;;;;;9.00;4.20;;;;;;;18.35;41.85;99750.63;5111637;28;20199;-61
2022/11/03 04:38:52;;;;;;;11.07;3.97;;;;;;;18.35;42.84;99745.34;5111923;27;20216;-62
2022/11/03 04:41:22;;;;;;;7.00;3.75;;;;;;;18.35;41.98;99750.63;5111993;28;20253;-62
2022/11/03 04:43:51;;;;;;;10.10;3.88;;;;;;;18.26;42.73;99736.22;5111827;28;20195;-61
2022/11/03 04:46:25;;;;;;;5.82;3.92;;;;;;;18.35;42.41;99750.63;5111633;27;20282;-60
2022/11/03 04:48:55;;;;;;;5.55;4.13;;;;;;;18.42;41.66;99750.16;5111777;28;20195;-62
2022/11/03 04:51:25;;;;;;;12.05;4.32;;;;;;;18.38;41.99;99746.03;5107497;28;20430;-60
2022/11/03 04:53:55;;;;;;;10.90;3.67;;;;;;;18.39;41.58;99741.63;5105776;28;20223;-60
2022/11/03 04:56:24;;;;;;;8.82;4.20;;;;;;;18.43;41.46;99751.88;5103915;28;20791;-62
2022/11/03 04:58:52;;;;;;;10.57;4.20;;;;;;;18.40;41.43;99752.03;5110218;28;20190;-62
2022/11/03 05:01:21;;;;;;;8.88;3.95;;;;;;;18.46;41.36;99766.63;5111024;28;20187;-60
2022/11/03 05:03:51;;;;;;;6.85;4.38;;;;;;;18.50;41.83;99768.16;5106841;28;20199;-60
2022/11/03 05:06:22;;;;;;;9.38;4.20;;;;;;;18.49;41.07;99764.66;5106246;28;20197;-60
2022/11/03 05:08:53;;;;;;;8.20;4.03;;;;;;;18.49;42.07;99763.81;5110042;28;20199;-60
2022/11/03 05:11:30;;;;;;;10.57;4.45;;;;;;;18.53;41.48;99770.56;5110219;28;20190;-60
2022/11/03 05:14:00;;;;;;;5.55;3.97;;;;;;;18.51;41.86;99770.66;5109978;28;20214;-59
2022/11/03 05:16:28;;;;;;;12.60;4.50;;;;;;;18.50;43.83;99771.63;5110183;28;20190;-62
2022/11/03 05:18:56;;;;;;;10.75;4.25;;;;;;;18.56;43.03;99775.66;5109728;28;20240;-59
2022/11/03 05:21:27;;;;;;;9.40;4.68;;;;;;;18.63;44.08;99778.81;5109612;28;20584;-61
2022/11/03 05:23:58;;;;;;;20.75;6.50;;;;;;;18.61;43.18;99773.66;5109939;28;20190;-62
2022/11/03 05:26:29;;;;;;;17.05;5.88;;;;;;;18.66;42.82;99783.91;5110035;28;20199;-62
2022/11/03 05:29:00;;;;;;;10.98;5.22;;;;;;;18.58;43.39;99765.09;5109743;28;20673;-63
2022/11/03 05:31:30;;;;;;;11.52;7.68;;;;;;;18.78;43.00;99789.31;5110440;28;20285;-62
2022/11/03 05:33:58;;;;;;;9.43;4.85;;;;;;;18.78;42.69;99794.56;5111007;28;20669;-63
2022/11/03 05:36:30;;;;;;;14.13;7.78;;;;;;;18.86;41.81;99794.94;5109840;28;20206;-62
2022/11/03 05:39:03;;;;;;;11.80;4.38;;;;;;;18.92;41.57;99804.28;5110616;28;20194;-62
2022/11/03 05:41:31;;;;;;;12.30;5.15;;;;;;;18.97;41.50;99804.00;5110015;28;20209;-63
2022/11/03 05:44:00;;;;;;;16.17;3.80;;;;;;;19.07;40.83;99803.41;5110270;28;20247;-63
2022/11/03 05:46:30;;;;;;;11.75;3.97;;;;;;;19.18;40.61;99815.91;5110505;28;20576;-63
2022/11/03 05:48:58;;;;;;;12.30;5.63;;;;;;;19.30;40.20;99823.06;5110498;28;20732;-63
2022/11/03 05:51:32;;;;;;;11.77;5.47;;;;;;;19.42;40.19;99830.22;5110290;28;20706;-64
2022/11/03 05:54:03;;;;;;;16.02;7.70;;;;;;;19.94;39.40;99830.56;5110143;28;20579;-64
2022/11/03 05:56:32;;;;;;;12.63;7.18;;;;;;;20.29;38.69;99841.53;5109804;28;20609;-63
2022/11/03 05:59:01;;;;;;;14.77;7.85;;;;;;;20.51;38.61;99837.53;5110392;28;20194;-64
2022/11/03 06:01:31;;;;;;;18.65;7.18;;;;;;;20.67;37.93;99822.41;5110064;28;20285;-63
2022/11/03 06:04:00;;;;;;;15.48;5.40;;;;;;;20.92;37.33;99848.03;5110034;28;20194;-63
2022/11/03 06:06:33;;;;;;;11.48;4.70;;;;;;;21.08;37.28;99847.84;5110142;28;20198;-64
2022/11/03 06:09:03;;;;;;;17.95;9.82;;;;;;;21.13;37.15;99854.50;5106783;28;20750;-63
2022/11/03 06:11:35;;;;;;;23.85;6.43;;;;;;;21.05;38.80;99853.34;5109680;27;20224;-63
2022/11/03 06:14:12;;;;;;;11.70;4.90;;;;;;;21.24;36.81;99864.38;5109830;28;20230;-63
2022/11/03 06:16:41;;;;;;;15.60;4.68;;;;;;;21.34;36.93;99862.81;5109513;27;20221;-63
2022/11/03 06:19:26;;;;;;;12.43;6.70;;;;;;;21.36;36.60;99874.97;5109738;28;20611;-63
2022/11/03 06:21:58;;;;;;;16.40;13.35;;;;;;;21.47;36.41;99879.53;5109059;27;20579;-62
2022/11/03 06:24:30;;;;;;;10.68;8.05;;;;;;;21.50;36.52;99881.97;5109599;28;20630;-62
2022/11/03 06:26:58;;;;;;;11.02;4.03;;;;;;;21.43;36.69;99891.25;5109155;28;20222;-62
2022/11/03 06:29:25;;;;;;;13.88;4.68;;;;;;;21.40;37.00;99902.03;5109206;28;20202;-63
2022/11/03 06:31:56;;;;;;;18.00;8.25;;;;;;;21.56;37.17;99901.81;5109116;28;20289;-62
2022/11/03 06:34:37;;;;;;;18.58;7.63;;;;;;;21.73;36.85;99914.75;5109836;28;20309;-63
2022/11/03 06:37:18;;;;;;;23.23;11.65;;;;;;;21.93;36.23;99918.66;5109781;28;20198;-64
2022/11/03 06:39:45;;;;;;;23.60;11.00;;;;;;;22.11;35.83;99919.22;5109771;28;20202;-63
2022/11/03 06:42:15;;;;;;;19.00;5.40;;;;;;;22.32;36.01;99915.91;5109699;28;20222;-64
2022/11/03 06:44:44;;;;;;;64.07;34.60;;;;;;;22.39;35.83;99918.94;5109469;28;20198;-64
2022/11/03 06:47:22;;;;;;;34.72;11.55;;;;;;;22.44;35.50;99930.91;5111208;28;20194;-64
2022/11/03 06:49:50;;;;;;;25.77;7.13;;;;;;;22.46;35.98;99921.03;5113855;28;20198;-63
2022/11/03 06:52:30;;;;;;;19.92;9.05;;;;;;;22.40;35.30;99929.41;5113795;28;20634;-62
2022/11/03 06:55:20;;;;;;;31.08;12.98;;;;;;;22.32;35.46;99913.25;5113621;28;20228;-62
2022/11/03 06:57:50;;;;;;;15.10;5.97;;;;;;;22.39;35.61;99930.38;5113351;28;20233;-63
2022/11/03 07:00:21;;;;;;;18.50;7.65;;;;;;;21.81;37.35;99928.25;5113777;28;20195;-62
2022/11/03 07:02:56;;;;;;;26.77;9.50;;;;;;;21.38;38.02;99933.81;5113412;28;20195;-62
2022/11/03 07:05:25;;;;;;;24.80;10.15;;;;;;;21.06;39.11;99934.22;5113366;28;20198;-62
2022/11/03 07:07:57;;;;;;;23.45;10.00;;;;;;;20.95;39.45;99942.81;5113573;28;20222;-63
2022/11/03 07:10:25;;;;;;;25.75;10.48;;;;;;;20.82;39.38;99950.69;5113349;28;20268;-63
2022/11/03 07:12:53;;;;;;;19.50;8.18;;;;;;;20.60;39.76;99953.84;5113858;27;20560;-62
2022/11/03 07:15:27;;;;;;;25.83;9.25;;;;;;;20.56;40.05;99956.75;5113171;28;20210;-62
2022/11/03 07:17:54;;;;;;;15.63;7.47;;;;;;;20.45;40.20;99948.66;5113672;28;20730;-62
2022/11/03 07:20:21;;;;;;;20.98;9.18;;;;;;;20.43;40.24;99948.75;5113129;28;20205;-61
2022/11/03 07:22:50;;;;;;;22.00;7.63;;;;;;;20.33;40.84;99950.25;5113215;28;20598;-62
2022/11/03 07:25:21;;;;;;;16.00;7.47;;;;;;;20.44;40.64;99947.81;5113155;28;20674;-64
2022/11/03 07:27:50;;;;;;;15.75;7.53;;;;;;;20.31;39.91;99949.53;5113265;27;21167;-62
2022/11/03 07:30:20;;;;;;;14.38;7.28;;;;;;;20.04;40.61;99946.78;5112892;28;20194;-62
2022/11/03 07:32:49;;;;;;;14.20;7.35;;;;;;;20.02;40.76;99956.56;5112823;28;20201;-62
2022/11/03 07:35:32;;;;;;;15.18;7.40;;;;;;;20.03;40.90;99958.25;5112642;28;20195;-62
2022/11/03 07:38:03;;;;;;;15.63;6.85;;;;;;;19.84;40.73;99926.06;5112871;28;20201;-62
2022/11/03 07:40:33;;;;;;;18.42;7.45;;;;;;;19.90;41.75;99952.03;5112516;28;20218;-62
2022/11/03 07:43:08;;;;;;;17.45;7.10;;;;;;;19.89;41.56;99939.78;5112732;27;20202;-62
2022/11/03 07:45:39;;;;;;;11.25;7.20;;;;;;;19.80;41.18;99942.97;5112563;28;20202;-61
2022/11/03 07:48:19;;;;;;;16.63;6.60;;;;;;;19.81;41.41;99950.78;5112749;28;20572;-62
2022/11/03 07:50:46;;;;;;;16.67;6.85;;;;;;;19.79;41.50;99928.13;5112442;28;20194;-62
2022/11/03 07:53:20;;;;;;;16.42;7.05;;;;;;;19.81;41.48;99942.03;5112363;27;20223;-62
2022/11/03 07:55:48;;;;;;;24.95;7.65;;;;;;;19.78;41.56;99947.50;5112421;28;20226;-63
2022/11/03 07:58:24;;;;;;;13.07;6.22;;;;;;;19.68;41.75;99947.19;5111581;28;20752;-62
2022/11/03 08:00:57;;;;;;;16.08;7.57;;;;;;;19.65;41.51;99947.38;5112438;28;20190;-61
2022/11/03 08:03:43;;;;;;;20.77;7.47;;;;;;;19.55;42.10;99939.16;5112465;28;20285;-62
2022/11/03 08:06:10;;;;;;;15.10;7.55;;;;;;;19.56;42.57;99942.66;5112196;28;20289;-62
2022/11/03 08:08:37;;;;;;;18.20;8.75;;;;;;;19.56;41.90;99934.75;5112012;28;20194;-62
2022/11/03 08:11:06;;;;;;;17.25;7.55;;;;;;;19.45;42.05;99945.03;5112420;28;20213;-61
2022/11/03 08:13:33;;;;;;;13.95;7.38;;;;;;;19.41;42.06;99928.56;5112329;28;20241;-62
2022/11/03 08:16:00;;;;;;;20.98;8.48;;;;;;;19.48;42.33;99924.69;5112278;28;20214;-63
2022/11/03 08:18:27;;;;;;;16.23;7.88;;;;;;;19.65;41.85;99938.63;5111943;28;20196;-63
2022/11/03 08:20:54;;;;;;;14.52;8.18;;;;;;;19.72;41.69;99932.91;5112097;28;20674;-62
2022/11/03 08:23:21;;;;;;;15.98;7.25;;;;;;;19.84;41.35;99933.97;5112033;28;20207;-61
2022/11/03 08:25:47;;;;;;;14.35;7.60;;;;;;;19.90;41.44;99930.94;5111852;28;20289;-62
2022/11/03 08:28:16;;;;;;;14.05;7.35;;;;;;;19.85;41.59;99939.16;5111836;28;20704;-62
2022/11/03 08:30:43;;;;;;;22.73;8.70;;;;;;;19.85;41.64;99940.94;5111740;28;20201;-62
2022/11/03 08:33:10;;;;;;;12.82;7.55;;;;;;;19.84;41.46;99931.34;5111718;28;20667;-64
2022/11/03 08:35:36;;;;;;;8.80;7.00;;;;;;;19.97;41.24;99934.94;5111772;28;20253;-63
2022/11/03 08:38:03;;;;;;;12.63;7.28;;;;;;;20.02;41.47;99935.47;5112003;28;20198;-63
2022/11/03 08:40:30;;;;;;;16.02;6.93;;;;;;;20.14;41.00;99939.16;5111970;28;20662;-63
2022/11/03 08:42:57;;;;;;;13.27;7.50;;;;;;;20.17;41.43;99926.63;5111584;28;20213;-64
2022/11/03 08:45:26;;;;;;;23.02;8.27;;;;;;;20.26;41.56;99939.25;5111434;28;20187;-64
2022/11/03 08:47:52;;;;;;;14.52;8.63;;;;;;;20.23;41.21;99917.50;5110938;28;20191;-62
2022/11/03 08:50:19;;;;;;;16.83;8.70;;;;;;;20.28;41.21;99929.47;5110145;28;20195;-63
2022/11/03 08:52:46;;;;;;;16.23;8.40;;;;;;;20.39;41.50;99926.19;5110154;28;20194;-63
2022/11/03 08:55:13;;;;;;;13.90;7.75;;;;;;;20.51;40.83;99927.22;5110015;28;20207;-63
2022/11/03 08:57:40;;;;;;;15.00;7.60;;;;;;;20.58;41.00;99931.13;5109738;28;20231;-63
2022/11/03 09:00:08;;;;;;;15.02;8.48;;;;;;;20.67;40.85;99941.09;5109894;28;20282;-63
2022/11/03 09:02:37;;;;;;;22.80;9.05;;;;;;;20.79;40.21;99939.47;5107937;28;20195;-64
2022/11/03 09:05:04;;;;;;;13.70;8.48;;;;;;;20.82;40.24;99934.84;5110228;28;20189;-63
2022/11/03 09:07:31;;;;;;;12.45;8.70;;;;;;;20.94;40.14;99930.56;5109916;28;20213;-63
2022/11/03 09:09:58;;;;;;;20.17;9.55;;;;;;;21.02;40.04;99918.56;5109800;28;20285;-63
2022/11/03 09:12:25;;;;;;;18.08;8.38;;;;;;;21.15;40.17;99923.88;5109536;28;20230;-63
2022/11/03 09:14:52;;;;;;;12.80;8.63;;;;;;;21.17;40.12;99921.16;5109382;28;20214;-63
2022/11/03 09:17:19;;;;;;;12.50;8.25;;;;;;;21.25;40.04;99914.44;5110377;28;20198;-63
2022/11/03 09:19:47;;;;;;;17.50;8.73;;;;;;;21.33;39.79;99916.59;5110271;28;20274;-62
2022/11/03 09:22:14;;;;;;;27.77;9.20;;;;;;;21.30;39.84;99896.53;5110423;28;20198;-63
2022/11/03 09:24:41;;;;;;;14.93;9.13;;;;;;;21.56;39.58;99909.75;5110762;28;20191;-63
2022/11/03 09:27:08;;;;;;;15.52;9.20;;;;;;;21.58;40.35;99900.75;5110184;28;20285;-62
2022/11/03 09:29:35;;;;;;;16.85;8.73;;;;;;;21.62;39.52;99890.84;5110544;28;20290;-62
2022/11/03 09:32:02;;;;;;;14.88;9.00;;;;;;;21.78;39.36;99906.50;5110671;28;20209;-63
2022/11/03 09:34:29;;;;;;;21.67;9.93;;;;;;;21.76;39.28;99903.97;5109836;28;20483;-61
2022/11/03 09:36:57;;;;;;;16.40;9.60;;;;;;;21.81;39.25;99895.69;5110645;27;20596;-63
2022/11/03 09:39:24;;;;;;;15.90;9.88;;;;;;;21.81;39.39;99900.97;5110472;28;20279;-62
2022/11/03 09:41:52;;;;;;;17.83;10.35;;;;;;;21.73;39.37;99898.88;5110610;28;20289;-63
2022/11/03 09:44:19;;;;;;;15.68;9.25;;;;;;;21.85;39.25;99897.19;5111062;28;20248;-60
2022/11/03 09:46:46;;;;;;;18.20;10.40;;;;;;;21.90;39.34;99889.78;5111036;28;20198;-65
2022/11/03 09:49:15;;;;;;;18.55;9.82;;;;;;;21.97;39.17;99891.91;5110180;28;20234;-64
2022/11/03 09:51:43;;;;;;;17.75;9.63;;;;;;;22.02;38.64;99888.94;5110203;28;20194;-62
2022/11/03 09:54:14;;;;;;;22.17;9.85;;;;;;;22.06;38.22;99877.22;5109948;28;20228;-64
2022/11/03 09:56:42;;;;;;;15.43;8.77;;;;;;;22.01;38.58;99897.84;5109995;28;20226;-64
2022/11/03 09:59:15;;;;;;;23.23;9.40;;;;;;;21.93;38.35;99889.56;5110240;28;20209;-64
2022/11/03 10:01:44;;;;;;;11.82;8.73;;;;;;;21.82;38.49;99866.53;5110124;28;20610;-65
2022/11/03 10:04:13;;;;;;;14.77;8.45;;;;;;;21.90;38.53;99882.69;5109921;28;20190;-65
2022/11/03 10:06:40;;;;;;;16.02;8.38;;;;;;;21.80;38.37;99859.66;5109912;28;20301;-65
2022/11/03 10:09:10;;;;;;;18.80;9.05;;;;;;;21.79;38.47;99855.31;5110094;28;20201;-65
2022/11/03 10:11:39;;;;;;;14.68;9.23;;;;;;;21.97;38.95;99865.47;5110182;28;20751;-62
2022/11/03 10:14:12;;;;;;;21.88;9.05;;;;;;;21.99;38.51;99862.75;5110064;28;20219;-64
2022/11/03 10:16:40;;;;;;;17.83;9.02;;;;;;;22.05;38.44;99870.25;5109912;28;20255;-64
2022/11/03 10:19:10;;;;;;;20.88;9.30;;;;;;;22.12;38.36;99855.66;5109883;28;20198;-65
2022/11/03 10:21:37;;;;;;;19.70;9.75;;;;;;;22.20;38.34;99860.38;5109595;28;20199;-62
2022/11/03 10:24:04;;;;;;;13.63;8.85;;;;;;;22.22;38.09;99837.34;5109977;28;20645;-62
2022/11/03 10:26:45;;;;;;;15.75;8.93;;;;;;;22.24;38.02;99849.47;5109859;28;20282;-65
2022/11/03 10:29:19;;;;;;;18.38;11.00;;;;;;;22.22;38.17;99854.03;5109793;28;20201;-64
2022/11/03 10:31:49;;;;;;;17.33;10.93;;;;;;;22.16;38.42;99848.34;5109590;28;20205;-65
2022/11/03 10:34:32;;;;;;;14.73;9.95;;;;;;;22.20;38.28;99840.09;5109552;28;20222;-64
2022/11/03 10:37:19;;;;;;;15.68;8.98;;;;;;;22.21;38.22;99839.13;5110101;28;20204;-62
2022/11/03 10:39:46;;;;;;;18.80;9.52;;;;;;;22.23;38.52;99836.38;5109728;28;20244;-62
2022/11/03 10:42:22;;;;;;;19.98;11.70;;;;;;;22.20;38.61;99820.72;5109448;28;20194;-62
2022/11/03 10:44:52;;;;;;;17.67;9.63;;;;;;;22.36;38.27;99827.44;5109447;28;20191;-63
2022/11/03 10:47:25;;;;;;;15.75;9.13;;;;;;;22.29;38.04;99806.84;5109590;28;20205;-63
2022/11/03 10:49:54;;;;;;;19.25;9.18;;;;;;;22.34;38.17;99820.59;5109469;28;20285;-64
2022/11/03 10:52:22;;;;;;;17.10;9.90;;;;;;;22.35;37.93;99815.16;5109448;28;20206;-62
2022/11/03 10:54:51;;;;;;;16.48;9.32;;;;;;;22.35;37.95;99807.22;5109562;28;20602;-62
2022/11/03 10:57:19;;;;;;;15.90;8.05;;;;;;;22.40;37.89;99788.38;5109277;28;20234;-65
2022/11/03 10:59:50;;;;;;;12.52;8.38;;;;;;;22.46;37.90;99804.63;5109526;28;20703;-64
2022/11/03 11:02:19;;;;;;;17.30;9.48;;;;;;;22.44;38.06;99796.00;5109430;28;20198;-64
2022/11/03 11:04:47;;;;;;;16.67;10.77;;;;;;;22.52;37.59;99797.22;5109375;28;20285;-65
2022/11/03 11:07:25;;;;;;;22.27;12.85;;;;;;;22.37;37.70;99770.94;5109531;28;20199;-65
2022/11/03 11:09:53;;;;;;;19.55;10.38;;;;;;;22.39;37.28;99776.13;5109586;28;20187;-65
2022/11/03 11:12:23;;;;;;;12.82;9.20;;;;;;;22.43;37.85;99778.44;5110084;28;20190;-62
2022/11/03 11:14:59;;;;;;;15.63;10.50;;;;;;;22.57;37.60;99773.94;5109534;28;20226;-64
2022/11/03 11:17:50;;;;;;;25.58;11.05;;;;;;;22.55;37.56;99766.09;5109170;28;20198;-66
2022/11/03 11:20:31;;;;;;;15.05;9.65;;;;;;;22.59;38.68;99766.69;5093959;28;20745;-66
2022/11/03 11:23:31;;;;;;;18.20;8.70;;;;;;;22.65;37.66;99755.69;5109412;28;20198;-66
2022/11/03 11:26:15;;;;;;;18.98;9.48;;;;;;;22.71;37.27;99757.84;5109193;28;20281;-66
2022/11/03 11:28:43;;;;;;;14.65;10.05;;;;;;;22.59;37.57;99756.97;5109453;28;20702;-66
2022/11/03 11:31:31;;;;;;;21.98;9.00;;;;;;;22.58;37.62;99743.84;5109197;28;20210;-67
2022/11/03 11:34:37;;;;;;;15.18;9.10;;;;;;;22.65;37.37;99745.94;5110149;28;20191;-67
2022/11/03 11:37:32;;;;;;;16.83;9.02;;;;;;;22.61;37.66;99744.47;5094837;28;20688;-66
2022/11/03 11:39:59;;;;;;;18.05;8.55;;;;;;;22.70;37.59;99738.47;5112852;28;20202;-62
2022/11/03 11:42:26;;;;;;;22.08;8.73;;;;;;;22.73;37.26;99737.41;5112788;28;20199;-61
2022/11/03 11:44:58;;;;;;;10.95;7.13;;;;;;;22.71;36.91;99734.88;5112665;28;20191;-62
2022/11/03 11:47:43;;;;;;;15.40;8.00;;;;;;;22.61;37.25;99731.25;5112867;28;20203;-62
2022/11/03 11:50:31;;;;;;;19.95;7.68;;;;;;;22.67;37.53;99727.31;5112823;28;20230;-68
2022/11/03 11:53:20;;;;;;;18.85;8.45;;;;;;;22.72;37.32;99725.97;5112507;28;20233;-66
2022/11/03 11:55:55;;;;;;;20.00;10.35;;;;;;;22.82;37.27;99728.81;5105550;28;20610;-67
2022/11/03 11:58:26;;;;;;;15.00;9.38;;;;;;;22.83;37.44;99721.72;5111696;28;20198;-66